sensor_id;sensor_type;location;lat;lon;timestamp;temperature;humidity
65824;SHT31;52585;47.566;19.056;2022-12-18T00:01:20;3.78;59.41
65824;SHT31;52585;47.566;19.056;2022-12-18T00:03:48;3.76;59.37
65824;SHT31;52585;47.566;19.056;2022-12-18T00:06:16;3.76;59.42
65824;SHT31;52585;47.566;19.056;2022-12-18T00:08:42;3.75;59.37
65824;SHT31;52585;47.566;19.056;2022-12-18T00:11:16;3.73;59.46
65824;SHT31;52585;47.566;19.056;2022-12-18T00:13:45;3.73;59.31
65824;SHT31;52585;47.566;19.056;2022-12-18T00:16:14;3.71;59.33
65824;SHT31;52585;47.566;19.056;2022-12-18T00:18:46;3.70;59.27
65824;SHT31;52585;47.566;19.056;2022-12-18T00:21:13;3.66;59.30
65824;SHT31;52585;47.566;19.056;2022-12-18T00:23:40;3.65;59.33
65824;SHT31;52585;47.566;19.056;2022-12-18T00:26:42;3.65;59.30
65824;SHT31;52585;47.566;19.056;2022-12-18T00:29:03;3.63;59.31
65824;SHT31;52585;47.566;19.056;2022-12-18T00:31:39;3.61;59.41
65824;SHT31;52585;47.566;19.056;2022-12-18T00:34:05;3.60;59.33
65824;SHT31;52585;47.566;19.056;2022-12-18T00:36:33;3.59;59.39
65824;SHT31;52585;47.566;19.056;2022-12-18T00:39:00;3.59;59.35
65824;SHT31;52585;47.566;19.056;2022-12-18T00:41:29;3.57;59.31
65824;SHT31;52585;47.566;19.056;2022-12-18T00:44:14;3.55;59.30
65824;SHT31;52585;47.566;19.056;2022-12-18T00:46:42;3.55;59.44
65824;SHT31;52585;47.566;19.056;2022-12-18T00:49:09;3.53;59.40
65824;SHT31;52585;47.566;19.056;2022-12-18T00:51:41;3.52;59.41
65824;SHT31;52585;47.566;19.056;2022-12-18T00:54:07;3.52;59.39
65824;SHT31;52585;47.566;19.056;2022-12-18T00:56:34;3.51;59.42
65824;SHT31;52585;47.566;19.056;2022-12-18T00:59:02;3.49;59.35
65824;SHT31;52585;47.566;19.056;2022-12-18T01:01:28;3.48;59.40
65824;SHT31;52585;47.566;19.056;2022-12-18T01:03:54;3.48;59.44
65824;SHT31;52585;47.566;19.056;2022-12-18T01:06:22;3.46;59.52
65824;SHT31;52585;47.566;19.056;2022-12-18T01:08:48;3.47;59.50
65824;SHT31;52585;47.566;19.056;2022-12-18T01:11:15;3.46;59.44
65824;SHT31;52585;47.566;19.056;2022-12-18T01:13:43;3.44;59.42
65824;SHT31;52585;47.566;19.056;2022-12-18T01:16:11;3.44;59.49
65824;SHT31;52585;47.566;19.056;2022-12-18T01:18:38;3.43;59.41
65824;SHT31;52585;47.566;19.056;2022-12-18T01:21:05;3.43;59.47
65824;SHT31;52585;47.566;19.056;2022-12-18T01:23:36;3.42;59.45
65824;SHT31;52585;47.566;19.056;2022-12-18T01:26:07;3.41;59.46
65824;SHT31;52585;47.566;19.056;2022-12-18T01:28:35;3.40;59.42
65824;SHT31;52585;47.566;19.056;2022-12-18T01:33:45;3.38;59.34
65824;SHT31;52585;47.566;19.056;2022-12-18T01:36:14;3.36;59.41
65824;SHT31;52585;47.566;19.056;2022-12-18T01:38:45;3.34;59.45
65824;SHT31;52585;47.566;19.056;2022-12-18T01:41:12;3.35;59.49
65824;SHT31;52585;47.566;19.056;2022-12-18T01:46:12;3.33;59.60
65824;SHT31;52585;47.566;19.056;2022-12-18T01:48:39;3.32;59.68
65824;SHT31;52585;47.566;19.056;2022-12-18T01:51:07;3.32;59.69
65824;SHT31;52585;47.566;19.056;2022-12-18T01:53:36;3.32;59.72
65824;SHT31;52585;47.566;19.056;2022-12-18T01:56:06;3.31;59.76
65824;SHT31;52585;47.566;19.056;2022-12-18T01:58:35;3.32;59.74
65824;SHT31;52585;47.566;19.056;2022-12-18T02:01:30;3.30;59.67
65824;SHT31;52585;47.566;19.056;2022-12-18T02:04:16;3.29;59.69
65824;SHT31;52585;47.566;19.056;2022-12-18T02:10:20;3.23;59.59
65824;SHT31;52585;47.566;19.056;2022-12-18T02:13:14;3.24;59.81
65824;SHT31;52585;47.566;19.056;2022-12-18T02:18:56;3.26;59.87
65824;SHT31;52585;47.566;19.056;2022-12-18T02:21:42;3.24;59.84
65824;SHT31;52585;47.566;19.056;2022-12-18T02:27:18;3.25;59.80
65824;SHT31;52585;47.566;19.056;2022-12-18T02:29:47;3.24;59.82
65824;SHT31;52585;47.566;19.056;2022-12-18T02:32:20;3.21;59.80
65824;SHT31;52585;47.566;19.056;2022-12-18T02:34:54;3.22;59.84
65824;SHT31;52585;47.566;19.056;2022-12-18T02:37:22;3.22;59.80
65824;SHT31;52585;47.566;19.056;2022-12-18T02:39:51;3.21;59.79
65824;SHT31;52585;47.566;19.056;2022-12-18T02:42:22;3.19;59.76
65824;SHT31;52585;47.566;19.056;2022-12-18T02:44:49;3.17;59.84
65824;SHT31;52585;47.566;19.056;2022-12-18T02:47:17;3.17;59.92
65824;SHT31;52585;47.566;19.056;2022-12-18T02:49:55;3.16;59.84
65824;SHT31;52585;47.566;19.056;2022-12-18T02:57:54;3.12;59.93
65824;SHT31;52585;47.566;19.056;2022-12-18T03:00:29;3.13;59.88
65824;SHT31;52585;47.566;19.056;2022-12-18T03:03:23;3.14;60.02
65824;SHT31;52585;47.566;19.056;2022-12-18T03:06:05;3.12;59.94
65824;SHT31;52585;47.566;19.056;2022-12-18T03:09:01;3.12;59.88
65824;SHT31;52585;47.566;19.056;2022-12-18T03:11:34;3.12;60.01
65824;SHT31;52585;47.566;19.056;2022-12-18T03:14:25;3.12;59.92
65824;SHT31;52585;47.566;19.056;2022-12-18T03:16:57;3.11;59.87
65824;SHT31;52585;47.566;19.056;2022-12-18T03:19:28;3.08;59.86
65824;SHT31;52585;47.566;19.056;2022-12-18T03:21:58;3.08;59.91
65824;SHT31;52585;47.566;19.056;2022-12-18T03:24:28;3.06;59.94
65824;SHT31;52585;47.566;19.056;2022-12-18T03:27:00;3.06;60.04
65824;SHT31;52585;47.566;19.056;2022-12-18T03:32:28;3.06;59.94
65824;SHT31;52585;47.566;19.056;2022-12-18T03:35:20;3.05;59.95
65824;SHT31;52585;47.566;19.056;2022-12-18T03:37:53;3.05;59.94
65824;SHT31;52585;47.566;19.056;2022-12-18T03:40:37;3.04;59.92
65824;SHT31;52585;47.566;19.056;2022-12-18T03:43:17;3.04;59.91
65824;SHT31;52585;47.566;19.056;2022-12-18T03:46:10;3.03;59.85
65824;SHT31;52585;47.566;19.056;2022-12-18T03:48:51;3.03;59.92
65824;SHT31;52585;47.566;19.056;2022-12-18T03:51:26;3.02;59.94
65824;SHT31;52585;47.566;19.056;2022-12-18T03:54:00;3.01;59.97
65824;SHT31;52585;47.566;19.056;2022-12-18T03:56:30;3.02;59.89
65824;SHT31;52585;47.566;19.056;2022-12-18T03:59:07;3.01;59.91
65824;SHT31;52585;47.566;19.056;2022-12-18T04:01:39;2.99;59.84
65824;SHT31;52585;47.566;19.056;2022-12-18T04:04:11;3.00;59.89
65824;SHT31;52585;47.566;19.056;2022-12-18T04:06:39;2.96;59.80
65824;SHT31;52585;47.566;19.056;2022-12-18T04:09:07;2.96;59.82
65824;SHT31;52585;47.566;19.056;2022-12-18T04:11:33;2.94;59.79
65824;SHT31;52585;47.566;19.056;2022-12-18T04:13:59;2.94;59.73
65824;SHT31;52585;47.566;19.056;2022-12-18T04:16:25;2.93;59.75
65824;SHT31;52585;47.566;19.056;2022-12-18T04:18:52;2.94;59.81
65824;SHT31;52585;47.566;19.056;2022-12-18T04:21:19;2.92;59.74
65824;SHT31;52585;47.566;19.056;2022-12-18T04:23:46;2.92;59.74
65824;SHT31;52585;47.566;19.056;2022-12-18T04:26:11;2.92;59.82
65824;SHT31;52585;47.566;19.056;2022-12-18T04:28:37;2.91;59.64
65824;SHT31;52585;47.566;19.056;2022-12-18T04:31:02;2.88;59.70
65824;SHT31;52585;47.566;19.056;2022-12-18T04:33:28;2.87;59.69
65824;SHT31;52585;47.566;19.056;2022-12-18T04:35:54;2.87;59.72
65824;SHT31;52585;47.566;19.056;2022-12-18T04:38:19;2.85;59.75
65824;SHT31;52585;47.566;19.056;2022-12-18T04:40:45;2.83;59.73
65824;SHT31;52585;47.566;19.056;2022-12-18T04:43:10;2.84;59.74
65824;SHT31;52585;47.566;19.056;2022-12-18T04:45:36;2.84;59.78
65824;SHT31;52585;47.566;19.056;2022-12-18T04:48:02;2.83;59.72
65824;SHT31;52585;47.566;19.056;2022-12-18T04:50:29;2.82;59.72
65824;SHT31;52585;47.566;19.056;2022-12-18T04:52:56;2.81;59.74
65824;SHT31;52585;47.566;19.056;2022-12-18T04:55:22;2.80;59.64
65824;SHT31;52585;47.566;19.056;2022-12-18T04:57:48;2.80;59.76
65824;SHT31;52585;47.566;19.056;2022-12-18T05:00:13;2.79;59.77
65824;SHT31;52585;47.566;19.056;2022-12-18T05:02:40;2.79;59.78
65824;SHT31;52585;47.566;19.056;2022-12-18T05:05:05;2.77;59.77
65824;SHT31;52585;47.566;19.056;2022-12-18T05:07:32;2.76;59.74
65824;SHT31;52585;47.566;19.056;2022-12-18T05:09:57;2.75;59.66
65824;SHT31;52585;47.566;19.056;2022-12-18T05:12:23;2.76;59.69
65824;SHT31;52585;47.566;19.056;2022-12-18T05:14:49;2.74;59.61
65824;SHT31;52585;47.566;19.056;2022-12-18T05:17:14;2.72;59.68
65824;SHT31;52585;47.566;19.056;2022-12-18T05:19:40;2.72;59.73
65824;SHT31;52585;47.566;19.056;2022-12-18T05:22:05;2.71;59.83
65824;SHT31;52585;47.566;19.056;2022-12-18T05:24:32;2.71;59.79
65824;SHT31;52585;47.566;19.056;2022-12-18T05:26:57;2.70;59.84
65824;SHT31;52585;47.566;19.056;2022-12-18T05:29:23;2.69;59.81
65824;SHT31;52585;47.566;19.056;2022-12-18T05:31:48;2.68;59.83
65824;SHT31;52585;47.566;19.056;2022-12-18T05:34:14;2.68;59.77
65824;SHT31;52585;47.566;19.056;2022-12-18T05:36:40;2.67;59.77
65824;SHT31;52585;47.566;19.056;2022-12-18T05:39:06;2.67;59.76
65824;SHT31;52585;47.566;19.056;2022-12-18T05:41:32;2.67;59.77
65824;SHT31;52585;47.566;19.056;2022-12-18T05:43:58;2.68;59.71
65824;SHT31;52585;47.566;19.056;2022-12-18T05:46:24;2.66;59.62
65824;SHT31;52585;47.566;19.056;2022-12-18T05:48:51;2.65;59.58
65824;SHT31;52585;47.566;19.056;2022-12-18T05:51:18;2.64;59.67
65824;SHT31;52585;47.566;19.056;2022-12-18T05:53:46;2.63;59.72
65824;SHT31;52585;47.566;19.056;2022-12-18T05:56:17;2.63;59.73
65824;SHT31;52585;47.566;19.056;2022-12-18T05:58:46;2.63;59.70
65824;SHT31;52585;47.566;19.056;2022-12-18T06:01:16;2.63;59.64
65824;SHT31;52585;47.566;19.056;2022-12-18T06:03:47;2.62;59.59
65824;SHT31;52585;47.566;19.056;2022-12-18T06:06:20;2.61;59.71
65824;SHT31;52585;47.566;19.056;2022-12-18T06:08:52;2.63;59.67
65824;SHT31;52585;47.566;19.056;2022-12-18T06:11:19;2.60;59.54
65824;SHT31;52585;47.566;19.056;2022-12-18T06:13:49;2.59;59.56
65824;SHT31;52585;47.566;19.056;2022-12-18T06:16:17;2.57;59.50
65824;SHT31;52585;47.566;19.056;2022-12-18T06:18:42;2.56;59.48
65824;SHT31;52585;47.566;19.056;2022-12-18T06:21:08;2.54;59.46
65824;SHT31;52585;47.566;19.056;2022-12-18T06:23:34;2.52;59.56
65824;SHT31;52585;47.566;19.056;2022-12-18T06:26:08;2.50;59.61
65824;SHT31;52585;47.566;19.056;2022-12-18T06:28:37;2.48;59.57
65824;SHT31;52585;47.566;19.056;2022-12-18T06:31:03;2.46;59.61
65824;SHT31;52585;47.566;19.056;2022-12-18T06:33:29;2.45;59.66
65824;SHT31;52585;47.566;19.056;2022-12-18T06:36:02;2.43;59.69
65824;SHT31;52585;47.566;19.056;2022-12-18T06:38:32;2.41;59.70
65824;SHT31;52585;47.566;19.056;2022-12-18T06:41:00;2.40;59.78
65824;SHT31;52585;47.566;19.056;2022-12-18T06:43:25;2.38;59.76
65824;SHT31;52585;47.566;19.056;2022-12-18T06:45:57;2.37;59.69
65824;SHT31;52585;47.566;19.056;2022-12-18T06:48:25;2.39;59.73
65824;SHT31;52585;47.566;19.056;2022-12-18T06:50:51;2.41;59.75
65824;SHT31;52585;47.566;19.056;2022-12-18T06:53:17;2.43;59.81
65824;SHT31;52585;47.566;19.056;2022-12-18T06:55:42;2.43;59.87
65824;SHT31;52585;47.566;19.056;2022-12-18T06:58:08;2.43;59.87
65824;SHT31;52585;47.566;19.056;2022-12-18T07:00:34;2.43;59.82
65824;SHT31;52585;47.566;19.056;2022-12-18T07:03:00;2.43;59.77
65824;SHT31;52585;47.566;19.056;2022-12-18T07:05:26;2.43;59.83
65824;SHT31;52585;47.566;19.056;2022-12-18T07:07:51;2.43;59.85
65824;SHT31;52585;47.566;19.056;2022-12-18T07:10:17;2.42;59.85
65824;SHT31;52585;47.566;19.056;2022-12-18T07:12:43;2.40;59.89
65824;SHT31;52585;47.566;19.056;2022-12-18T07:15:09;2.40;60.03
65824;SHT31;52585;47.566;19.056;2022-12-18T07:17:35;2.40;60.12
65824;SHT31;52585;47.566;19.056;2022-12-18T07:20:00;2.39;60.07
65824;SHT31;52585;47.566;19.056;2022-12-18T07:22:26;2.39;60.05
65824;SHT31;52585;47.566;19.056;2022-12-18T07:24:52;2.40;60.01
65824;SHT31;52585;47.566;19.056;2022-12-18T07:27:18;2.40;60.07
65824;SHT31;52585;47.566;19.056;2022-12-18T07:29:44;2.40;60.17
65824;SHT31;52585;47.566;19.056;2022-12-18T07:32:09;2.40;60.18
65824;SHT31;52585;47.566;19.056;2022-12-18T07:34:35;2.41;60.13
65824;SHT31;52585;47.566;19.056;2022-12-18T07:37:01;2.41;60.13
65824;SHT31;52585;47.566;19.056;2022-12-18T07:39:26;2.40;60.23
65824;SHT31;52585;47.566;19.056;2022-12-18T07:41:52;2.40;60.33
65824;SHT31;52585;47.566;19.056;2022-12-18T07:44:38;2.41;60.27
65824;SHT31;52585;47.566;19.056;2022-12-18T07:47:04;2.43;60.39
65824;SHT31;52585;47.566;19.056;2022-12-18T07:49:30;2.44;60.40
65824;SHT31;52585;47.566;19.056;2022-12-18T07:51:55;2.46;60.42
65824;SHT31;52585;47.566;19.056;2022-12-18T07:54:23;2.46;60.52
65824;SHT31;52585;47.566;19.056;2022-12-18T07:56:50;2.48;60.71
65824;SHT31;52585;47.566;19.056;2022-12-18T07:59:16;2.49;60.83
65824;SHT31;52585;47.566;19.056;2022-12-18T08:01:42;2.51;60.87
65824;SHT31;52585;47.566;19.056;2022-12-18T08:04:08;2.53;60.87
65824;SHT31;52585;47.566;19.056;2022-12-18T08:06:33;2.54;61.10
65824;SHT31;52585;47.566;19.056;2022-12-18T08:08:59;2.58;61.30
65824;SHT31;52585;47.566;19.056;2022-12-18T08:11:26;2.63;61.44
65824;SHT31;52585;47.566;19.056;2022-12-18T08:13:53;2.66;61.41
65824;SHT31;52585;47.566;19.056;2022-12-18T08:16:20;2.71;61.32
65824;SHT31;52585;47.566;19.056;2022-12-18T08:18:48;2.73;61.09
65824;SHT31;52585;47.566;19.056;2022-12-18T08:21:15;2.76;60.92
65824;SHT31;52585;47.566;19.056;2022-12-18T08:23:46;2.79;60.95
65824;SHT31;52585;47.566;19.056;2022-12-18T08:26:12;2.82;61.01
65824;SHT31;52585;47.566;19.056;2022-12-18T08:28:39;2.83;61.00
65824;SHT31;52585;47.566;19.056;2022-12-18T08:31:06;2.86;60.89
65824;SHT31;52585;47.566;19.056;2022-12-18T08:33:32;2.86;60.63
65824;SHT31;52585;47.566;19.056;2022-12-18T08:35:59;2.87;60.61
65824;SHT31;52585;47.566;19.056;2022-12-18T08:38:25;2.89;60.55
65824;SHT31;52585;47.566;19.056;2022-12-18T08:40:58;2.91;60.52
65824;SHT31;52585;47.566;19.056;2022-12-18T08:43:28;2.93;60.50
65824;SHT31;52585;47.566;19.056;2022-12-18T08:46:12;2.94;60.47
65824;SHT31;52585;47.566;19.056;2022-12-18T08:48:38;2.94;60.05
65824;SHT31;52585;47.566;19.056;2022-12-18T08:51:03;2.94;59.85
65824;SHT31;52585;47.566;19.056;2022-12-18T08:53:29;2.94;60.04
65824;SHT31;52585;47.566;19.056;2022-12-18T08:55:55;2.96;59.97
65824;SHT31;52585;47.566;19.056;2022-12-18T08:58:21;3.01;60.12
65824;SHT31;52585;47.566;19.056;2022-12-18T09:00:47;3.05;60.14
65824;SHT31;52585;47.566;19.056;2022-12-18T09:03:17;3.08;60.15
65824;SHT31;52585;47.566;19.056;2022-12-18T09:05:45;3.11;60.01
65824;SHT31;52585;47.566;19.056;2022-12-18T09:08:12;3.13;59.78
65824;SHT31;52585;47.566;19.056;2022-12-18T09:10:41;3.16;59.83
65824;SHT31;52585;47.566;19.056;2022-12-18T09:13:10;3.17;59.87
65824;SHT31;52585;47.566;19.056;2022-12-18T09:15:40;3.21;59.92
65824;SHT31;52585;47.566;19.056;2022-12-18T09:18:08;3.22;59.90
65824;SHT31;52585;47.566;19.056;2022-12-18T09:20:35;3.24;60.17
65824;SHT31;52585;47.566;19.056;2022-12-18T09:23:02;3.27;60.22
65824;SHT31;52585;47.566;19.056;2022-12-18T09:25:29;3.30;60.19
65824;SHT31;52585;47.566;19.056;2022-12-18T09:28:02;3.31;60.30
65824;SHT31;52585;47.566;19.056;2022-12-18T09:30:30;3.33;60.23
65824;SHT31;52585;47.566;19.056;2022-12-18T09:32:58;3.36;60.37
65824;SHT31;52585;47.566;19.056;2022-12-18T09:35:24;3.38;60.33
65824;SHT31;52585;47.566;19.056;2022-12-18T09:37:50;3.40;60.27
65824;SHT31;52585;47.566;19.056;2022-12-18T09:40:16;3.42;60.17
65824;SHT31;52585;47.566;19.056;2022-12-18T09:42:47;3.44;60.17
65824;SHT31;52585;47.566;19.056;2022-12-18T09:45:19;3.48;60.21
65824;SHT31;52585;47.566;19.056;2022-12-18T09:47:46;3.52;60.25
65824;SHT31;52585;47.566;19.056;2022-12-18T09:50:33;3.54;60.01
65824;SHT31;52585;47.566;19.056;2022-12-18T09:53:05;3.58;59.75
65824;SHT31;52585;47.566;19.056;2022-12-18T09:55:41;3.59;59.71
65824;SHT31;52585;47.566;19.056;2022-12-18T09:58:18;3.63;59.80
65824;SHT31;52585;47.566;19.056;2022-12-18T10:00:54;3.64;59.84
65824;SHT31;52585;47.566;19.056;2022-12-18T10:03:20;3.66;59.71
65824;SHT31;52585;47.566;19.056;2022-12-18T10:08:46;3.72;59.75
65824;SHT31;52585;47.566;19.056;2022-12-18T10:11:38;3.75;59.67
65824;SHT31;52585;47.566;19.056;2022-12-18T10:20:24;3.82;59.73
65824;SHT31;52585;47.566;19.056;2022-12-18T10:25:35;3.87;59.84
65824;SHT31;52585;47.566;19.056;2022-12-18T10:28:28;3.89;59.88
65824;SHT31;52585;47.566;19.056;2022-12-18T10:30:57;3.91;59.94
65824;SHT31;52585;47.566;19.056;2022-12-18T10:33:24;3.94;59.92
65824;SHT31;52585;47.566;19.056;2022-12-18T10:35:55;3.97;59.83
65824;SHT31;52585;47.566;19.056;2022-12-18T10:38:23;3.99;59.94
65824;SHT31;52585;47.566;19.056;2022-12-18T10:40:57;4.01;59.89
65824;SHT31;52585;47.566;19.056;2022-12-18T10:44:11;4.04;59.84
65824;SHT31;52585;47.566;19.056;2022-12-18T10:46:46;4.08;59.88
65824;SHT31;52585;47.566;19.056;2022-12-18T10:49:33;4.11;59.62
65824;SHT31;52585;47.566;19.056;2022-12-18T10:52:07;4.14;59.43
65824;SHT31;52585;47.566;19.056;2022-12-18T10:54:59;4.16;59.30
65824;SHT31;52585;47.566;19.056;2022-12-18T10:57:36;4.18;59.25
65824;SHT31;52585;47.566;19.056;2022-12-18T11:00:22;4.19;59.19
65824;SHT31;52585;47.566;19.056;2022-12-18T11:02:55;4.22;59.26
65824;SHT31;52585;47.566;19.056;2022-12-18T11:05:23;4.24;59.41
65824;SHT31;52585;47.566;19.056;2022-12-18T11:07:49;4.26;59.45
65824;SHT31;52585;47.566;19.056;2022-12-18T11:10:19;4.28;59.35
65824;SHT31;52585;47.566;19.056;2022-12-18T11:12:48;4.30;59.39
65824;SHT31;52585;47.566;19.056;2022-12-18T11:15:26;4.32;59.41
65824;SHT31;52585;47.566;19.056;2022-12-18T11:17:55;4.35;59.45
65824;SHT31;52585;47.566;19.056;2022-12-18T11:20:23;4.37;59.43
65824;SHT31;52585;47.566;19.056;2022-12-18T11:23:20;4.40;59.40
65824;SHT31;52585;47.566;19.056;2022-12-18T11:25:56;4.41;59.29
65824;SHT31;52585;47.566;19.056;2022-12-18T11:28:38;4.45;59.20
65824;SHT31;52585;47.566;19.056;2022-12-18T11:36:44;4.50;58.88
65824;SHT31;52585;47.566;19.056;2022-12-18T11:45:11;4.57;58.94
65824;SHT31;52585;47.566;19.056;2022-12-18T11:53:24;4.61;58.93
65824;SHT31;52585;47.566;19.056;2022-12-18T11:55:57;4.62;58.61
65824;SHT31;52585;47.566;19.056;2022-12-18T11:58:47;4.64;58.80
65824;SHT31;52585;47.566;19.056;2022-12-18T12:04:10;4.67;58.90
65824;SHT31;52585;47.566;19.056;2022-12-18T12:16:47;4.79;58.87
65824;SHT31;52585;47.566;19.056;2022-12-18T12:40:12;4.91;58.58
65824;SHT31;52585;47.566;19.056;2022-12-18T12:42:46;4.94;58.65
65824;SHT31;52585;47.566;19.056;2022-12-18T12:48:35;4.97;58.42
65824;SHT31;52585;47.566;19.056;2022-12-18T12:51:37;4.98;58.32
65824;SHT31;52585;47.566;19.056;2022-12-18T12:54:01;4.99;58.18
65824;SHT31;52585;47.566;19.056;2022-12-18T12:56:46;5.00;58.08
65824;SHT31;52585;47.566;19.056;2022-12-18T13:02:37;5.02;57.98
65824;SHT31;52585;47.566;19.056;2022-12-18T13:08:23;5.04;57.87
65824;SHT31;52585;47.566;19.056;2022-12-18T13:10:53;5.05;57.55
65824;SHT31;52585;47.566;19.056;2022-12-18T13:13:50;5.07;57.55
65824;SHT31;52585;47.566;19.056;2022-12-18T13:16:21;5.07;57.52
65824;SHT31;52585;47.566;19.056;2022-12-18T13:18:51;5.08;57.61
65824;SHT31;52585;47.566;19.056;2022-12-18T13:21:21;5.09;57.62
65824;SHT31;52585;47.566;19.056;2022-12-18T13:23:54;5.11;57.62
65824;SHT31;52585;47.566;19.056;2022-12-18T13:36:51;5.16;57.21
65824;SHT31;52585;47.566;19.056;2022-12-18T13:41:50;5.18;56.53
65824;SHT31;52585;47.566;19.056;2022-12-18T13:44:36;5.19;56.32
65824;SHT31;52585;47.566;19.056;2022-12-18T13:47:27;5.21;56.45
65824;SHT31;52585;47.566;19.056;2022-12-18T13:49:59;5.22;56.08
65824;SHT31;52585;47.566;19.056;2022-12-18T13:52:33;5.22;56.29
65824;SHT31;52585;47.566;19.056;2022-12-18T13:55:05;5.21;56.19
65824;SHT31;52585;47.566;19.056;2022-12-18T13:57:41;5.23;56.21
65824;SHT31;52585;47.566;19.056;2022-12-18T14:02:50;5.26;56.04
65824;SHT31;52585;47.566;19.056;2022-12-18T14:05:27;5.26;56.17
65824;SHT31;52585;47.566;19.056;2022-12-18T14:08:08;5.26;56.30
65824;SHT31;52585;47.566;19.056;2022-12-18T14:10:40;5.26;56.34
65824;SHT31;52585;47.566;19.056;2022-12-18T14:13:15;5.26;56.25
65824;SHT31;52585;47.566;19.056;2022-12-18T14:15:55;5.26;56.57
65824;SHT31;52585;47.566;19.056;2022-12-18T14:21:24;5.25;56.92
65824;SHT31;52585;47.566;19.056;2022-12-18T14:26:46;5.22;57.22
65824;SHT31;52585;47.566;19.056;2022-12-18T14:32:05;5.20;57.32
65824;SHT31;52585;47.566;19.056;2022-12-18T14:34:45;5.17;57.21
65824;SHT31;52585;47.566;19.056;2022-12-18T14:37:14;5.14;57.22
65824;SHT31;52585;47.566;19.056;2022-12-18T14:42:43;5.11;57.22
65824;SHT31;52585;47.566;19.056;2022-12-18T14:51:03;5.02;57.49
65824;SHT31;52585;47.566;19.056;2022-12-18T14:53:43;4.99;57.46
65824;SHT31;52585;47.566;19.056;2022-12-18T14:58:46;4.91;57.21
65824;SHT31;52585;47.566;19.056;2022-12-18T15:03:55;4.85;57.30
65824;SHT31;52585;47.566;19.056;2022-12-18T15:06:30;4.82;57.37
65824;SHT31;52585;47.566;19.056;2022-12-18T15:09:24;4.79;57.33
65824;SHT31;52585;47.566;19.056;2022-12-18T15:11:59;4.74;57.24
65824;SHT31;52585;47.566;19.056;2022-12-18T15:14:32;4.71;57.29
65824;SHT31;52585;47.566;19.056;2022-12-18T15:17:05;4.68;57.34
65824;SHT31;52585;47.566;19.056;2022-12-18T15:19:46;4.64;57.23
65824;SHT31;52585;47.566;19.056;2022-12-18T15:22:21;4.59;57.32
65824;SHT31;52585;47.566;19.056;2022-12-18T15:25:00;4.55;57.38
65824;SHT31;52585;47.566;19.056;2022-12-18T15:27:42;4.52;57.51
65824;SHT31;52585;47.566;19.056;2022-12-18T15:30:19;4.48;57.57
65824;SHT31;52585;47.566;19.056;2022-12-18T15:32:48;4.47;57.53
65824;SHT31;52585;47.566;19.056;2022-12-18T15:37:45;4.41;57.54
65824;SHT31;52585;47.566;19.056;2022-12-18T15:40:13;4.38;57.60
65824;SHT31;52585;47.566;19.056;2022-12-18T15:42:50;4.35;57.69
65824;SHT31;52585;47.566;19.056;2022-12-18T15:45:38;4.33;57.73
65824;SHT31;52585;47.566;19.056;2022-12-18T15:48:15;4.30;57.77
65824;SHT31;52585;47.566;19.056;2022-12-18T15:50:48;4.26;57.80
65824;SHT31;52585;47.566;19.056;2022-12-18T15:53:22;4.24;57.73
65824;SHT31;52585;47.566;19.056;2022-12-18T15:55:50;4.20;57.88
65824;SHT31;52585;47.566;19.056;2022-12-18T15:58:35;4.16;57.87
65824;SHT31;52585;47.566;19.056;2022-12-18T16:01:01;4.13;57.96
65824;SHT31;52585;47.566;19.056;2022-12-18T16:03:27;4.11;57.84
65824;SHT31;52585;47.566;19.056;2022-12-18T16:05:54;4.08;57.96
65824;SHT31;52585;47.566;19.056;2022-12-18T16:08:23;4.07;58.02
65824;SHT31;52585;47.566;19.056;2022-12-18T16:10:51;4.06;58.06
65824;SHT31;52585;47.566;19.056;2022-12-18T16:13:18;4.05;58.06
65824;SHT31;52585;47.566;19.056;2022-12-18T16:15:49;4.03;58.15
65824;SHT31;52585;47.566;19.056;2022-12-18T16:18:18;4.02;58.33
65824;SHT31;52585;47.566;19.056;2022-12-18T16:20:45;4.00;58.47
65824;SHT31;52585;47.566;19.056;2022-12-18T16:23:11;3.98;58.47
65824;SHT31;52585;47.566;19.056;2022-12-18T16:25:41;3.96;58.42
65824;SHT31;52585;47.566;19.056;2022-12-18T16:28:08;3.95;58.41
65824;SHT31;52585;47.566;19.056;2022-12-18T16:30:34;3.94;58.42
65824;SHT31;52585;47.566;19.056;2022-12-18T16:33:02;3.93;58.34
65824;SHT31;52585;47.566;19.056;2022-12-18T16:35:29;3.91;58.32
65824;SHT31;52585;47.566;19.056;2022-12-18T16:37:55;3.89;58.42
65824;SHT31;52585;47.566;19.056;2022-12-18T16:40:25;3.89;58.41
65824;SHT31;52585;47.566;19.056;2022-12-18T16:42:51;3.87;58.41
65824;SHT31;52585;47.566;19.056;2022-12-18T16:45:18;3.84;58.45
65824;SHT31;52585;47.566;19.056;2022-12-18T16:47:44;3.83;58.54
65824;SHT31;52585;47.566;19.056;2022-12-18T16:50:12;3.81;58.67
65824;SHT31;52585;47.566;19.056;2022-12-18T16:52:39;3.80;58.62
65824;SHT31;52585;47.566;19.056;2022-12-18T16:55:06;3.78;58.63
65824;SHT31;52585;47.566;19.056;2022-12-18T16:57:33;3.76;58.54
65824;SHT31;52585;47.566;19.056;2022-12-18T17:00:00;3.73;58.47
65824;SHT31;52585;47.566;19.056;2022-12-18T17:02:26;3.72;58.65
65824;SHT31;52585;47.566;19.056;2022-12-18T17:04:53;3.70;58.74
65824;SHT31;52585;47.566;19.056;2022-12-18T17:07:25;3.69;58.69
65824;SHT31;52585;47.566;19.056;2022-12-18T17:09:54;3.67;58.65
65824;SHT31;52585;47.566;19.056;2022-12-18T17:12:22;3.65;58.67
65824;SHT31;52585;47.566;19.056;2022-12-18T17:14:51;3.63;58.71
65824;SHT31;52585;47.566;19.056;2022-12-18T17:17:17;3.61;58.70
65824;SHT31;52585;47.566;19.056;2022-12-18T17:19:45;3.61;58.71
65824;SHT31;52585;47.566;19.056;2022-12-18T17:22:11;3.59;58.61
65824;SHT31;52585;47.566;19.056;2022-12-18T17:24:37;3.57;58.71
65824;SHT31;52585;47.566;19.056;2022-12-18T17:27:03;3.56;58.72
65824;SHT31;52585;47.566;19.056;2022-12-18T17:29:30;3.54;58.70
65824;SHT31;52585;47.566;19.056;2022-12-18T17:31:57;3.53;58.73
65824;SHT31;52585;47.566;19.056;2022-12-18T17:34:23;3.52;58.84
65824;SHT31;52585;47.566;19.056;2022-12-18T17:36:49;3.50;58.95
65824;SHT31;52585;47.566;19.056;2022-12-18T17:39:17;3.48;58.98
65824;SHT31;52585;47.566;19.056;2022-12-18T17:41:45;3.48;59.12
65824;SHT31;52585;47.566;19.056;2022-12-18T17:44:13;3.46;59.23
65824;SHT31;52585;47.566;19.056;2022-12-18T17:46:40;3.57;59.19
65824;SHT31;52585;47.566;19.056;2022-12-18T17:49:08;3.76;58.69
65824;SHT31;52585;47.566;19.056;2022-12-18T17:51:36;3.98;58.16
65824;SHT31;52585;47.566;19.056;2022-12-18T17:54:08;4.22;57.85
65824;SHT31;52585;47.566;19.056;2022-12-18T17:56:35;4.44;57.58
65824;SHT31;52585;47.566;19.056;2022-12-18T17:59:04;4.64;57.03
65824;SHT31;52585;47.566;19.056;2022-12-18T18:01:31;4.83;56.89
65824;SHT31;52585;47.566;19.056;2022-12-18T18:03:58;5.22;59.60
65824;SHT31;52585;47.566;19.056;2022-12-18T18:06:24;5.48;55.40
65824;SHT31;52585;47.566;19.056;2022-12-18T18:08:52;5.61;55.10